createdAt,value
2017-05-31T00:00:14.582Z,16.54
2017-05-31T00:01:15.556Z,16.56
2017-05-31T00:02:16.283Z,16.53
2017-05-31T00:03:17.003Z,16.51
2017-05-31T00:04:17.730Z,16.47
2017-05-31T00:05:18.453Z,16.35
2017-05-31T00:06:19.430Z,16.43
2017-05-31T00:07:20.179Z,16.43
2017-05-31T00:08:20.902Z,16.38
2017-05-31T00:09:21.628Z,16.43
2017-05-31T00:10:22.350Z,16.43
2017-05-31T00:11:23.323Z,16.33
2017-05-31T00:12:24.046Z,16.35
2017-05-31T00:13:24.769Z,16.36
2017-05-31T00:14:25.496Z,16.35
2017-05-31T00:15:26.220Z,16.33
2017-05-31T00:16:27.193Z,16.36
2017-05-31T00:17:27.919Z,16.28
2017-05-31T00:18:28.643Z,16.31
2017-05-31T00:19:29.394Z,16.24
2017-05-31T00:20:30.116Z,16.28
2017-05-31T00:21:31.116Z,16.32
2017-05-31T00:22:31.840Z,16.33
2017-05-31T00:23:32.589Z,16.32
2017-05-31T00:24:33.334Z,16.20
2017-05-31T00:25:34.059Z,16.21
2017-05-31T00:26:35.031Z,16.26
2017-05-31T00:27:35.755Z,16.28
2017-05-31T00:28:36.479Z,16.17
2017-05-31T00:29:37.201Z,16.28
2017-05-31T00:30:37.925Z,16.21
2017-05-31T00:31:38.901Z,16.12
2017-05-31T00:32:39.625Z,16.13
2017-05-31T00:33:40.351Z,16.13
2017-05-31T00:34:41.072Z,16.10
2017-05-31T00:35:41.793Z,16.05
2017-05-31T00:36:42.793Z,16.10
2017-05-31T00:37:43.515Z,16.02
2017-05-31T00:38:44.241Z,16.04
2017-05-31T00:39:44.966Z,16.01
2017-05-31T00:40:45.714Z,16.01
2017-05-31T00:41:46.690Z,15.98
2017-05-31T00:42:47.415Z,15.97
2017-05-31T00:43:48.140Z,16.00
2017-05-31T00:44:48.862Z,15.95
2017-05-31T00:45:49.586Z,15.86
2017-05-31T00:46:50.561Z,15.94
2017-05-31T00:47:51.287Z,15.92
2017-05-31T00:48:52.013Z,15.88
2017-05-31T00:49:52.760Z,15.92
2017-05-31T00:50:53.482Z,15.82
2017-05-31T00:51:54.455Z,15.83
2017-05-31T00:52:55.181Z,15.84
2017-05-31T00:53:55.904Z,15.79
2017-05-31T00:54:56.631Z,15.77
2017-05-31T00:56:58.228Z,15.82
2017-05-31T00:57:58.956Z,15.76
2017-05-31T00:58:59.679Z,15.80
2017-05-31T01:00:00.405Z,15.75
2017-05-31T01:01:01.130Z,15.76
2017-05-31T01:02:02.105Z,15.73
2017-05-31T01:03:02.852Z,15.75
2017-05-31T01:04:03.603Z,15.76
2017-05-31T01:05:04.328Z,15.62
2017-05-31T01:06:05.057Z,15.67
2017-05-31T01:07:06.061Z,15.62
2017-05-31T01:08:06.785Z,15.70
2017-05-31T01:09:07.511Z,15.68
2017-05-31T01:10:08.262Z,15.62
2017-05-31T01:11:08.990Z,15.65
2017-05-31T01:12:09.966Z,15.68
2017-05-31T01:13:10.698Z,15.65
2017-05-31T01:14:11.421Z,15.54
2017-05-31T01:15:12.141Z,15.61
2017-05-31T01:16:12.865Z,15.55
2017-05-31T01:17:13.842Z,15.64
2017-05-31T01:18:14.569Z,15.55
2017-05-31T01:19:15.293Z,15.59
2017-05-31T01:20:16.019Z,15.55
2017-05-31T01:21:16.742Z,15.55
2017-05-31T01:22:17.717Z,15.49
2017-05-31T01:23:18.441Z,15.64
2017-05-31T01:24:19.165Z,15.59
2017-05-31T01:25:19.889Z,15.55
2017-05-31T01:26:20.617Z,15.57
2017-05-31T01:27:21.592Z,15.49
2017-05-31T01:28:22.318Z,15.47
2017-05-31T01:29:23.068Z,15.57
2017-05-31T01:30:23.795Z,15.49
2017-05-31T01:31:24.518Z,15.43
2017-05-31T01:32:25.502Z,15.51
2017-05-31T01:33:26.224Z,15.46
2017-05-31T01:34:26.970Z,15.49
2017-05-31T01:35:27.698Z,15.39
2017-05-31T01:36:28.424Z,15.39
2017-05-31T01:37:29.398Z,15.44
2017-05-31T01:38:30.121Z,15.33
2017-05-31T01:39:30.849Z,15.39
2017-05-31T01:40:31.572Z,15.44
2017-05-31T01:41:32.297Z,15.42
2017-05-31T01:42:33.274Z,15.39
2017-05-31T01:43:34.002Z,15.35
2017-05-31T01:44:34.725Z,15.44
2017-05-31T01:45:35.450Z,15.31
2017-05-31T01:46:36.173Z,15.33
2017-05-31T01:47:37.151Z,15.33
2017-05-31T01:48:37.874Z,15.28
2017-05-31T01:49:38.625Z,15.25
2017-05-31T01:50:39.377Z,15.27
2017-05-31T01:51:40.101Z,15.28
2017-05-31T01:52:41.075Z,15.25
2017-05-31T01:53:41.803Z,15.21
2017-05-31T01:54:42.523Z,15.22
2017-05-31T01:55:43.247Z,15.21
2017-05-31T01:56:43.975Z,15.22
2017-05-31T01:57:44.951Z,15.25
2017-05-31T01:58:45.678Z,15.17
2017-05-31T01:59:46.403Z,15.17
2017-05-31T02:00:47.154Z,15.15
2017-05-31T02:01:47.877Z,15.18
2017-05-31T02:02:48.852Z,15.17
2017-05-31T02:03:49.578Z,15.19
2017-05-31T02:04:50.305Z,15.09
2017-05-31T02:05:51.027Z,15.11
2017-05-31T02:06:51.776Z,15.11
2017-05-31T02:07:52.751Z,15.10
2017-05-31T02:08:53.476Z,15.10
2017-05-31T02:09:54.200Z,15.17
2017-05-31T02:10:54.923Z,15.17
2017-05-31T02:11:55.648Z,15.18
2017-05-31T02:12:56.624Z,15.22
2017-05-31T02:13:57.351Z,15.10
2017-05-31T02:14:58.076Z,15.25
2017-05-31T02:15:58.800Z,15.24
2017-05-31T02:16:59.524Z,15.27
2017-05-31T02:18:00.498Z,15.18
2017-05-31T02:19:01.225Z,15.07
2017-05-31T02:20:01.953Z,15.11
2017-05-31T02:21:02.676Z,15.19
2017-05-31T02:22:03.422Z,15.19
2017-05-31T02:23:04.396Z,15.10
2017-05-31T02:24:05.123Z,15.14
2017-05-31T02:25:05.846Z,15.11
2017-05-31T02:26:06.568Z,15.22
2017-05-31T02:27:07.293Z,15.19
2017-05-31T02:28:08.266Z,15.17
2017-05-31T02:29:08.993Z,15.10
2017-05-31T02:30:09.716Z,15.11
2017-05-31T02:31:10.468Z,15.09
2017-05-31T02:32:11.192Z,15.06
2017-05-31T02:33:12.169Z,15.07
2017-05-31T02:34:12.893Z,15.02
2017-05-31T02:35:13.644Z,15.06
2017-05-31T02:36:14.371Z,15.02
2017-05-31T02:37:15.093Z,15.04
2017-05-31T02:38:16.065Z,15.10
2017-05-31T02:39:16.825Z,15.10
2017-05-31T02:40:17.561Z,15.10
2017-05-31T02:41:18.285Z,15.11
2017-05-31T02:42:19.013Z,15.14
2017-05-31T02:43:19.989Z,15.11
2017-05-31T02:44:20.715Z,15.10
2017-05-31T02:45:21.440Z,15.19
2017-05-31T02:46:22.166Z,15.11
2017-05-31T02:47:22.889Z,15.15
2017-05-31T02:48:23.866Z,15.17
2017-05-31T02:49:24.592Z,15.07
2017-05-31T02:50:25.315Z,15.17
2017-05-31T02:51:26.038Z,15.21
2017-05-31T02:52:26.763Z,15.22
2017-05-31T02:53:27.764Z,15.22
2017-05-31T02:54:28.488Z,15.25
2017-05-31T02:55:29.215Z,15.31
2017-05-31T02:56:29.944Z,15.28
2017-05-31T02:57:30.667Z,15.31
2017-05-31T02:58:31.644Z,15.28
2017-05-31T02:59:32.373Z,15.29
2017-05-31T03:00:33.097Z,15.28
2017-05-31T03:01:33.821Z,15.27
2017-05-31T03:02:34.571Z,15.31
2017-05-31T03:03:35.550Z,15.29
2017-05-31T03:04:36.276Z,15.21
2017-05-31T03:05:37.027Z,15.29
2017-05-31T03:06:37.752Z,15.14
2017-05-31T03:07:38.481Z,15.18
2017-05-31T03:08:39.456Z,15.22
2017-05-31T03:09:40.182Z,15.11
2017-05-31T03:10:40.909Z,15.17
2017-05-31T03:11:41.638Z,15.15
2017-05-31T03:12:42.366Z,15.14
2017-05-31T03:13:43.342Z,15.09
2017-05-31T03:14:44.067Z,15.19
2017-05-31T03:15:44.796Z,15.14
2017-05-31T03:16:45.523Z,15.03
2017-05-31T03:17:46.252Z,15.15
2017-05-31T03:18:47.227Z,15.11
2017-05-31T03:19:47.951Z,15.11
2017-05-31T03:20:48.679Z,15.15
2017-05-31T03:21:49.407Z,15.03
2017-05-31T03:22:50.135Z,15.00
2017-05-31T03:23:51.110Z,15.04
2017-05-31T03:24:51.838Z,15.07
2017-05-31T03:25:52.565Z,15.02
2017-05-31T03:26:53.294Z,15.07
2017-05-31T03:27:54.022Z,15.03
2017-05-31T03:28:55.002Z,15.06
2017-05-31T03:29:55.732Z,14.96
2017-05-31T03:30:56.460Z,15.00
2017-05-31T03:31:57.187Z,15.03
2017-05-31T03:32:57.939Z,15.07
2017-05-31T03:33:58.918Z,15.02
2017-05-31T03:34:59.648Z,15.07
2017-05-31T03:36:00.375Z,15.07
2017-05-31T03:37:01.106Z,15.07
2017-05-31T03:38:01.834Z,15.07
2017-05-31T03:39:02.810Z,15.02
2017-05-31T03:40:03.537Z,15.11
2017-05-31T03:41:04.266Z,14.94
2017-05-31T03:42:04.995Z,14.96
2017-05-31T03:43:05.722Z,15.00
2017-05-31T03:44:06.701Z,14.96
2017-05-31T03:45:07.429Z,14.97
2017-05-31T03:46:08.155Z,15.03
2017-05-31T03:47:08.884Z,14.97
2017-05-31T03:48:09.635Z,15.02
2017-05-31T03:49:10.614Z,14.96
2017-05-31T03:50:11.342Z,14.94
2017-05-31T03:51:12.071Z,14.96
2017-05-31T03:52:12.798Z,15.00
2017-05-31T03:53:13.529Z,14.94
2017-05-31T03:54:14.504Z,14.96
2017-05-31T03:55:15.238Z,15.00
2017-05-31T03:56:15.968Z,15.00
2017-05-31T03:57:16.694Z,14.94
2017-05-31T03:58:17.424Z,14.96
2017-05-31T03:59:18.402Z,15.02
2017-05-31T04:00:19.155Z,14.94
2017-05-31T04:01:19.884Z,14.89
2017-05-31T04:02:20.609Z,14.96
2017-05-31T04:03:21.340Z,14.96
2017-05-31T04:04:22.317Z,14.94
2017-05-31T04:05:23.047Z,14.89
2017-05-31T04:06:23.774Z,14.86
2017-05-31T04:07:24.504Z,14.88
2017-05-31T04:08:25.261Z,14.91
2017-05-31T04:09:26.268Z,14.86
2017-05-31T04:10:26.996Z,14.88
2017-05-31T04:11:27.727Z,14.84
2017-05-31T04:12:28.456Z,14.91
2017-05-31T04:13:29.210Z,14.79
2017-05-31T04:14:30.191Z,14.86
2017-05-31T04:15:30.918Z,14.85
2017-05-31T04:16:31.646Z,14.86
2017-05-31T04:17:32.377Z,14.81
2017-05-31T04:18:33.109Z,14.84
2017-05-31T04:19:34.087Z,14.84
2017-05-31T04:20:34.817Z,14.82
2017-05-31T04:21:35.543Z,14.81
2017-05-31T04:22:36.276Z,14.85
2017-05-31T04:23:37.005Z,14.81
2017-05-31T04:24:37.987Z,14.86
2017-05-31T04:25:38.717Z,14.79
2017-05-31T04:26:39.446Z,14.79
2017-05-31T04:27:40.179Z,14.79
2017-05-31T04:28:40.905Z,14.84
2017-05-31T04:29:41.884Z,14.86
2017-05-31T04:30:42.611Z,14.79
2017-05-31T04:31:43.343Z,14.77
2017-05-31T04:32:44.074Z,14.77
2017-05-31T04:33:44.806Z,14.79
2017-05-31T04:34:45.784Z,14.79
2017-05-31T04:35:46.539Z,14.78
2017-05-31T04:36:47.272Z,14.81
2017-05-31T04:37:48.001Z,14.82
2017-05-31T04:38:48.734Z,14.78
2017-05-31T04:39:49.713Z,14.86
2017-05-31T04:40:50.445Z,14.89
2017-05-31T04:41:51.184Z,14.84
2017-05-31T04:42:51.904Z,14.88
2017-05-31T04:43:52.636Z,14.79
2017-05-31T04:44:53.617Z,14.91
2017-05-31T04:45:54.346Z,14.88
2017-05-31T04:46:55.075Z,14.96
2017-05-31T04:47:55.805Z,14.88
2017-05-31T04:48:56.534Z,14.88
2017-05-31T04:49:57.516Z,15.00
2017-05-31T04:50:58.247Z,14.99
2017-05-31T04:51:58.978Z,15.09
2017-05-31T04:52:59.709Z,15.04
2017-05-31T04:54:00.439Z,15.11
2017-05-31T04:55:01.422Z,15.09
2017-05-31T04:56:02.153Z,15.22
2017-05-31T04:57:02.885Z,15.21
2017-05-31T04:58:03.618Z,15.19
2017-05-31T04:59:04.349Z,15.22
2017-05-31T05:00:05.329Z,15.29
2017-05-31T05:01:06.061Z,15.33
2017-05-31T05:02:06.793Z,15.39
2017-05-31T05:03:07.527Z,15.52
2017-05-31T05:04:08.259Z,15.46
2017-05-31T05:05:09.240Z,15.55
2017-05-31T05:06:09.976Z,15.65
2017-05-31T05:07:10.708Z,15.64
2017-05-31T05:08:11.465Z,15.73
2017-05-31T05:09:12.199Z,15.76
2017-05-31T05:10:13.184Z,15.82
2017-05-31T05:11:13.912Z,15.80
2017-05-31T05:12:14.646Z,15.83
2017-05-31T05:13:15.406Z,15.76
2017-05-31T05:14:16.140Z,15.84
2017-05-31T05:15:17.134Z,15.80
2017-05-31T05:16:17.853Z,15.84
2017-05-31T05:17:18.588Z,15.84
2017-05-31T05:18:19.321Z,15.80
2017-05-31T05:19:20.052Z,15.80
2017-05-31T05:20:21.035Z,15.84
2017-05-31T05:21:21.767Z,15.79
2017-05-31T05:22:22.499Z,15.84
2017-05-31T05:23:23.258Z,15.83
2017-05-31T05:24:23.993Z,16.02
2017-05-31T05:25:24.973Z,16.05
2017-05-31T05:26:25.822Z,16.20
2017-05-31T05:27:26.580Z,16.08
2017-05-31T05:28:27.312Z,16.08
2017-05-31T05:29:28.045Z,16.31
2017-05-31T05:30:29.027Z,16.33
2017-05-31T05:31:29.790Z,16.47
2017-05-31T05:32:30.517Z,16.36
2017-05-31T05:33:31.252Z,16.46
2017-05-31T05:34:31.987Z,16.57
2017-05-31T05:35:32.971Z,16.61
2017-05-31T05:36:33.703Z,16.69
2017-05-31T05:37:34.433Z,16.87
2017-05-31T05:38:35.166Z,16.76
2017-05-31T05:39:35.898Z,16.87
2017-05-31T05:40:36.879Z,16.78
2017-05-31T05:41:37.615Z,16.69
2017-05-31T05:42:38.347Z,16.57
2017-05-31T05:43:39.083Z,16.64
2017-05-31T05:44:39.814Z,16.71
2017-05-31T05:45:40.799Z,16.78
2017-05-31T05:46:41.533Z,16.78
2017-05-31T05:47:42.289Z,16.72
2017-05-31T05:48:43.026Z,16.61
2017-05-31T05:49:43.786Z,16.60
2017-05-31T05:50:44.769Z,16.56
2017-05-31T05:51:45.503Z,16.54
2017-05-31T05:52:46.234Z,16.66
2017-05-31T05:53:46.970Z,16.58
2017-05-31T05:54:47.727Z,16.64
2017-05-31T05:55:48.712Z,16.83
2017-05-31T05:56:49.444Z,16.89
2017-05-31T05:57:50.202Z,16.84
2017-05-31T05:58:50.939Z,16.94
2017-05-31T05:59:51.673Z,16.97
2017-05-31T06:00:52.660Z,16.97
2017-05-31T06:01:53.390Z,17.02
2017-05-31T06:02:54.124Z,16.99
2017-05-31T06:03:54.858Z,17.02
2017-05-31T06:04:55.593Z,17.05
2017-05-31T06:05:56.575Z,17.09
2017-05-31T06:06:57.330Z,17.16
2017-05-31T06:07:58.067Z,17.22
2017-05-31T06:08:58.806Z,17.31
2017-05-31T06:09:59.531Z,17.38
2017-05-31T06:11:00.515Z,17.38
2017-05-31T06:12:01.246Z,17.29
2017-05-31T06:13:01.983Z,17.38
2017-05-31T06:14:02.714Z,17.49
2017-05-31T06:15:03.446Z,17.44
2017-05-31T06:16:04.433Z,17.34
2017-05-31T06:17:05.164Z,17.48
2017-05-31T06:18:05.900Z,17.65
2017-05-31T06:19:06.628Z,17.54
2017-05-31T06:20:07.361Z,17.59
2017-05-31T06:21:08.347Z,17.57
2017-05-31T06:22:09.110Z,17.65
2017-05-31T06:23:09.835Z,17.87
2017-05-31T06:24:10.568Z,17.83
2017-05-31T06:25:11.302Z,17.74
2017-05-31T06:26:12.289Z,17.74
2017-05-31T06:27:13.018Z,17.94
2017-05-31T06:28:13.753Z,18.04
2017-05-31T06:29:14.486Z,18.04
2017-05-31T06:30:15.218Z,18.13
2017-05-31T06:31:16.202Z,18.16
2017-05-31T06:32:16.939Z,18.28
2017-05-31T06:33:17.670Z,18.35
2017-05-31T06:34:18.406Z,18.20
2017-05-31T06:35:19.140Z,18.16
2017-05-31T06:36:20.124Z,18.22
2017-05-31T06:37:20.858Z,18.33
2017-05-31T06:38:21.589Z,18.43
2017-05-31T06:39:22.324Z,18.50
2017-05-31T06:40:23.058Z,18.56
2017-05-31T06:41:24.045Z,18.59
2017-05-31T06:42:24.802Z,18.41
2017-05-31T06:43:25.536Z,18.44
2017-05-31T06:44:26.269Z,18.45
2017-05-31T06:45:27.005Z,18.63
2017-05-31T06:46:27.990Z,18.65
2017-05-31T06:47:28.722Z,18.75
2017-05-31T06:48:29.457Z,18.77
2017-05-31T06:49:30.192Z,18.74
2017-05-31T06:50:30.926Z,18.56
2017-05-31T06:51:31.910Z,18.71
2017-05-31T06:52:32.642Z,18.66
2017-05-31T06:53:33.375Z,18.95
2017-05-31T06:54:34.112Z,18.73
2017-05-31T06:55:34.846Z,18.58
2017-05-31T06:56:35.829Z,18.77
2017-05-31T06:57:36.562Z,18.88
2017-05-31T06:58:37.295Z,18.99
2017-05-31T06:59:38.026Z,19.07
2017-05-31T07:00:38.759Z,19.09
2017-05-31T07:01:39.746Z,19.12
2017-05-31T07:02:40.479Z,19.18
2017-05-31T07:03:41.239Z,18.93
2017-05-31T07:04:41.974Z,18.84
2017-05-31T07:05:42.708Z,19.00
2017-05-31T07:06:43.695Z,18.88
2017-05-31T07:07:44.430Z,18.90
2017-05-31T07:08:45.161Z,19.16
2017-05-31T07:09:45.893Z,19.27
2017-05-31T07:10:46.627Z,19.37
2017-05-31T07:11:47.613Z,19.30
2017-05-31T07:12:48.346Z,19.18
2017-05-31T07:13:49.082Z,19.22
2017-05-31T07:14:49.841Z,19.24
2017-05-31T07:15:50.578Z,19.33
2017-05-31T07:16:51.563Z,19.45
2017-05-31T07:17:52.295Z,19.33
2017-05-31T07:18:53.032Z,19.47
2017-05-31T07:19:53.768Z,19.45
2017-05-31T07:20:54.530Z,19.51
2017-05-31T07:21:55.514Z,19.47
2017-05-31T07:22:56.246Z,19.52
2017-05-31T07:23:56.980Z,19.82
2017-05-31T07:24:57.715Z,19.85
2017-05-31T07:25:58.452Z,19.52
2017-05-31T07:26:59.434Z,19.66
2017-05-31T07:28:00.174Z,19.47
2017-05-31T07:29:00.909Z,19.40
2017-05-31T07:30:01.641Z,19.44
2017-05-31T07:31:02.374Z,19.64
2017-05-31T07:32:03.358Z,19.84
2017-05-31T07:33:04.096Z,19.99
2017-05-31T07:34:04.852Z,20.11
2017-05-31T07:35:05.586Z,19.86
2017-05-31T07:36:06.323Z,19.91
2017-05-31T07:37:07.308Z,20.00
2017-05-31T07:38:08.045Z,19.96
2017-05-31T07:39:08.808Z,19.85
2017-05-31T07:40:09.542Z,19.96
2017-05-31T07:41:10.281Z,20.09
2017-05-31T07:42:11.272Z,20.26
2017-05-31T07:43:12.013Z,20.22
2017-05-31T07:44:12.751Z,20.25
2017-05-31T07:45:13.515Z,20.52
2017-05-31T07:46:14.255Z,20.82
2017-05-31T07:47:15.250Z,21.15
2017-05-31T07:48:16.025Z,21.52
2017-05-31T07:49:16.784Z,21.21
2017-05-31T07:50:17.551Z,21.29
2017-05-31T07:51:18.296Z,21.55
2017-05-31T07:52:19.319Z,21.89
2017-05-31T07:53:20.066Z,21.85
2017-05-31T07:54:20.811Z,21.40
2017-05-31T07:55:21.557Z,21.33
2017-05-31T07:56:22.304Z,21.02
2017-05-31T07:57:23.302Z,21.39
2017-05-31T07:58:24.048Z,21.48
2017-05-31T07:59:24.799Z,21.73
2017-05-31T08:00:25.548Z,22.17
2017-05-31T08:01:26.296Z,22.51
2017-05-31T08:02:27.292Z,23.08
2017-05-31T08:03:28.035Z,22.84
2017-05-31T08:04:28.782Z,22.85
2017-05-31T08:05:29.528Z,22.85
2017-05-31T08:06:30.275Z,22.50
2017-05-31T08:07:31.271Z,22.18
2017-05-31T08:08:32.018Z,22.18
2017-05-31T08:09:32.762Z,21.82
2017-05-31T08:10:33.507Z,22.29
2017-05-31T08:11:34.253Z,22.73
2017-05-31T08:12:35.247Z,23.09
2017-05-31T08:13:35.996Z,23.08
2017-05-31T08:14:36.741Z,23.50
2017-05-31T08:15:37.487Z,23.83
2017-05-31T08:16:38.229Z,24.06
2017-05-31T08:17:39.227Z,23.37
2017-05-31T08:18:39.968Z,22.91
2017-05-31T08:19:40.712Z,22.51
2017-05-31T08:20:41.456Z,22.68
2017-05-31T08:21:42.224Z,22.45
2017-05-31T08:22:43.215Z,21.85
2017-05-31T08:23:43.958Z,21.73
2017-05-31T08:24:44.702Z,22.08
2017-05-31T08:25:45.447Z,22.38
2017-05-31T08:26:46.191Z,22.18
2017-05-31T08:27:47.183Z,21.95
2017-05-31T08:28:47.924Z,22.48
2017-05-31T08:29:48.666Z,23.13
2017-05-31T08:30:49.413Z,23.34
2017-05-31T08:31:50.160Z,23.03
2017-05-31T08:32:51.156Z,23.40
2017-05-31T08:33:51.898Z,22.84
2017-05-31T08:34:52.641Z,22.75
2017-05-31T08:35:53.383Z,22.57
2017-05-31T08:36:54.149Z,22.44
2017-05-31T08:37:55.144Z,22.29
2017-05-31T08:38:55.889Z,22.15
2017-05-31T08:39:56.637Z,22.26
2017-05-31T08:40:57.380Z,22.20
2017-05-31T08:41:58.126Z,22.76
2017-05-31T08:42:59.121Z,23.08
2017-05-31T08:43:59.866Z,23.88
2017-05-31T08:45:00.615Z,24.13
2017-05-31T08:46:01.357Z,23.92
2017-05-31T08:47:02.100Z,23.98
2017-05-31T08:48:03.097Z,23.55
2017-05-31T08:49:03.838Z,23.09
2017-05-31T08:50:04.584Z,23.37
2017-05-31T08:51:05.325Z,23.40
2017-05-31T08:52:06.069Z,23.12
2017-05-31T08:53:07.063Z,23.06
2017-05-31T08:54:07.810Z,22.90
2017-05-31T08:55:08.558Z,22.76
2017-05-31T08:56:09.298Z,22.63
2017-05-31T08:57:10.041Z,22.88
2017-05-31T08:58:11.037Z,22.93
2017-05-31T08:59:11.801Z,23.00
2017-05-31T09:00:12.547Z,22.85
2017-05-31T09:01:13.290Z,23.39
2017-05-31T09:02:14.034Z,23.55
2017-05-31T09:03:15.030Z,23.03
2017-05-31T09:04:15.774Z,23.20
2017-05-31T09:05:16.512Z,23.36
2017-05-31T09:06:17.255Z,23.28
2017-05-31T09:07:17.999Z,23.39
2017-05-31T09:08:18.994Z,23.50
2017-05-31T09:09:19.734Z,22.87
2017-05-31T09:10:20.477Z,22.55
2017-05-31T09:11:21.217Z,22.35
2017-05-31T09:12:21.956Z,22.28
2017-05-31T09:13:22.946Z,22.53
2017-05-31T09:14:23.688Z,22.53
2017-05-31T09:15:24.431Z,22.29
2017-05-31T09:16:25.177Z,22.14
2017-05-31T09:17:25.921Z,21.93
2017-05-31T09:18:26.911Z,21.70
2017-05-31T09:19:27.651Z,21.52
2017-05-31T09:20:28.394Z,21.62
2017-05-31T09:21:29.140Z,21.79
2017-05-31T09:22:29.884Z,22.10
2017-05-31T09:23:30.878Z,22.30
2017-05-31T09:24:31.624Z,22.57
2017-05-31T09:25:32.365Z,22.85
2017-05-31T09:26:33.106Z,23.13
2017-05-31T09:27:33.851Z,23.21
2017-05-31T09:28:34.844Z,23.13
2017-05-31T09:29:35.587Z,22.72
2017-05-31T09:30:36.359Z,22.73
2017-05-31T09:31:37.104Z,22.90
2017-05-31T09:32:37.849Z,23.24
2017-05-31T09:33:38.838Z,23.65
2017-05-31T09:34:39.583Z,23.93
2017-05-31T09:35:40.325Z,24.02
2017-05-31T09:36:41.093Z,24.26
2017-05-31T09:37:41.863Z,24.10
2017-05-31T09:38:42.859Z,23.98
2017-05-31T09:39:43.621Z,23.51
2017-05-31T09:40:44.365Z,23.44
2017-05-31T09:41:45.105Z,23.20
2017-05-31T09:42:45.848Z,23.31
2017-05-31T09:43:46.840Z,23.13
2017-05-31T09:44:47.584Z,23.61
2017-05-31T09:45:48.331Z,23.84
2017-05-31T09:46:49.072Z,23.80
2017-05-31T09:47:49.814Z,24.02
2017-05-31T09:48:50.813Z,24.24
2017-05-31T09:49:51.556Z,24.84
2017-05-31T09:50:52.305Z,25.51
2017-05-31T09:51:53.049Z,26.06
2017-05-31T09:52:53.822Z,26.43
2017-05-31T09:53:54.819Z,25.93
2017-05-31T09:54:55.567Z,25.88
2017-05-31T09:55:56.312Z,25.62
2017-05-31T09:56:57.061Z,24.47
2017-05-31T09:57:57.805Z,24.08
2017-05-31T09:58:58.799Z,24.42
2017-05-31T09:59:59.544Z,24.60
2017-05-31T10:01:00.291Z,24.57
2017-05-31T10:02:01.059Z,24.45
2017-05-31T10:03:01.802Z,25.13
2017-05-31T10:04:02.798Z,25.40
2017-05-31T10:05:03.544Z,25.35
2017-05-31T10:06:04.287Z,25.50
2017-05-31T10:07:05.034Z,25.25
2017-05-31T10:08:05.774Z,25.38
2017-05-31T10:09:06.766Z,25.16
2017-05-31T10:10:07.509Z,25.10
2017-05-31T10:11:08.249Z,24.85
2017-05-31T10:12:08.994Z,24.39
2017-05-31T10:13:09.736Z,24.54
2017-05-31T10:14:10.725Z,24.63
2017-05-31T10:15:11.468Z,24.66
2017-05-31T10:16:12.213Z,24.73
2017-05-31T10:17:12.958Z,24.76
2017-05-31T10:18:13.695Z,24.70
2017-05-31T10:19:14.686Z,24.86
2017-05-31T10:20:15.431Z,24.61
2017-05-31T10:21:16.170Z,23.91
2017-05-31T10:22:16.914Z,23.81
2017-05-31T10:23:17.655Z,23.78
2017-05-31T10:24:18.648Z,23.66
2017-05-31T10:25:19.390Z,23.69
2017-05-31T10:26:20.133Z,23.80
2017-05-31T10:27:20.878Z,23.66
2017-05-31T10:28:21.620Z,23.80
2017-05-31T10:29:22.618Z,23.95
2017-05-31T10:30:23.362Z,23.92
2017-05-31T10:31:24.106Z,23.74
2017-05-31T10:32:24.849Z,23.66
2017-05-31T10:33:25.597Z,24.05
2017-05-31T10:34:26.591Z,25.03
2017-05-31T10:35:27.342Z,25.59
2017-05-31T10:36:28.085Z,26.19
2017-05-31T10:37:28.831Z,26.58
2017-05-31T10:38:29.578Z,26.41
2017-05-31T10:39:30.574Z,26.81
2017-05-31T10:40:31.321Z,26.78
2017-05-31T10:41:32.065Z,27.22
2017-05-31T10:42:32.814Z,26.95
2017-05-31T10:43:33.559Z,26.56
2017-05-31T10:44:34.580Z,26.21
2017-05-31T10:45:35.320Z,25.81
2017-05-31T10:46:36.065Z,25.29
2017-05-31T10:47:36.806Z,24.74
2017-05-31T10:48:37.575Z,24.63
2017-05-31T10:49:38.565Z,24.47
2017-05-31T10:50:39.308Z,24.28
2017-05-31T10:51:40.071Z,24.05
2017-05-31T10:52:40.815Z,23.95
2017-05-31T10:53:41.554Z,23.65
2017-05-31T10:54:42.543Z,23.61
2017-05-31T10:55:43.286Z,23.28
2017-05-31T10:56:44.026Z,23.31
2017-05-31T10:57:44.766Z,23.48
2017-05-31T10:58:45.512Z,23.44
2017-05-31T10:59:46.497Z,23.50
2017-05-31T11:00:47.238Z,23.43
2017-05-31T11:01:47.976Z,23.39
2017-05-31T11:02:48.716Z,23.40
2017-05-31T11:03:49.481Z,23.62
2017-05-31T11:04:50.474Z,23.51
2017-05-31T11:05:51.216Z,23.81
2017-05-31T11:06:51.957Z,24.33
2017-05-31T11:07:52.699Z,24.95
2017-05-31T11:08:53.448Z,25.63
2017-05-31T11:09:54.438Z,26.06
2017-05-31T11:10:55.185Z,26.26
2017-05-31T11:11:55.955Z,26.68
2017-05-31T11:12:56.729Z,26.77
2017-05-31T11:13:57.473Z,26.89
2017-05-31T11:14:58.472Z,25.78
2017-05-31T11:15:59.221Z,26.10
2017-05-31T11:16:59.969Z,26.25
2017-05-31T11:18:00.718Z,26.05
2017-05-31T11:19:01.476Z,26.70
2017-05-31T11:20:02.489Z,27.03
2017-05-31T11:21:03.240Z,27.14
2017-05-31T11:22:03.991Z,27.45
2017-05-31T11:23:04.744Z,28.01
2017-05-31T11:24:05.503Z,28.04
2017-05-31T11:25:06.513Z,28.02
2017-05-31T11:26:07.272Z,27.32
2017-05-31T11:27:08.027Z,27.74
2017-05-31T11:28:08.806Z,28.01
2017-05-31T11:29:09.585Z,28.44
2017-05-31T11:30:10.589Z,28.23
2017-05-31T11:31:11.345Z,26.99
2017-05-31T11:32:12.098Z,26.78
2017-05-31T11:33:12.851Z,27.32
2017-05-31T11:34:13.606Z,27.75
2017-05-31T11:35:14.609Z,27.65
2017-05-31T11:36:15.366Z,27.60
2017-05-31T11:37:16.124Z,27.03
2017-05-31T11:38:16.874Z,26.80
2017-05-31T11:39:17.626Z,26.36
2017-05-31T11:40:18.629Z,26.45
2017-05-31T11:41:19.376Z,26.37
2017-05-31T11:42:20.120Z,26.26
2017-05-31T11:43:20.891Z,26.44
2017-05-31T11:44:21.634Z,26.71
2017-05-31T11:45:22.634Z,27.35
2017-05-31T11:46:23.382Z,27.44
2017-05-31T11:47:24.137Z,27.68
2017-05-31T11:48:24.878Z,27.73
2017-05-31T11:49:25.619Z,27.52
2017-05-31T11:50:26.613Z,27.35
2017-05-31T11:51:27.356Z,27.21
2017-05-31T11:52:28.098Z,27.35
2017-05-31T11:53:28.843Z,27.71
2017-05-31T11:54:29.614Z,27.89
2017-05-31T11:55:30.610Z,27.26
2017-05-31T11:56:31.353Z,27.63
2017-05-31T11:57:32.121Z,28.23
2017-05-31T11:58:32.865Z,28.56
2017-05-31T11:59:33.637Z,27.98
2017-05-31T12:00:34.629Z,27.02
2017-05-31T12:01:35.375Z,26.73
2017-05-31T12:02:36.115Z,26.99
2017-05-31T12:03:36.859Z,27.14
2017-05-31T12:04:37.656Z,27.15
2017-05-31T12:05:38.593Z,27.14
2017-05-31T12:06:39.333Z,27.05
2017-05-31T12:07:40.101Z,26.95
2017-05-31T12:08:40.841Z,26.70
2017-05-31T12:09:41.638Z,26.43
2017-05-31T12:10:42.571Z,26.29
2017-05-31T12:11:43.311Z,25.88
2017-05-31T12:12:44.049Z,25.83
2017-05-31T12:13:44.792Z,25.69
2017-05-31T12:14:45.534Z,25.70
2017-05-31T12:15:46.520Z,25.77
2017-05-31T12:16:47.261Z,25.73
2017-05-31T12:17:48.025Z,25.55
2017-05-31T12:18:48.790Z,25.44
2017-05-31T12:19:49.556Z,25.43
2017-05-31T12:20:50.544Z,24.96
2017-05-31T12:21:51.284Z,24.99
2017-05-31T12:22:52.020Z,24.84
2017-05-31T12:23:52.756Z,24.74
2017-05-31T12:24:53.497Z,24.57
2017-05-31T12:25:54.483Z,24.57
2017-05-31T12:26:55.220Z,24.47
2017-05-31T12:27:55.956Z,24.45
2017-05-31T12:28:56.695Z,24.33
2017-05-31T12:29:57.437Z,24.28
2017-05-31T12:30:58.425Z,24.28
2017-05-31T12:31:59.165Z,24.06
2017-05-31T12:32:59.905Z,23.92
2017-05-31T12:34:00.643Z,23.96
2017-05-31T12:35:01.384Z,23.81
2017-05-31T12:36:02.373Z,23.83
2017-05-31T12:37:03.135Z,23.76
2017-05-31T12:38:03.871Z,23.68
2017-05-31T12:39:04.613Z,23.65
2017-05-31T12:40:05.348Z,23.58
2017-05-31T12:41:06.335Z,23.55
2017-05-31T12:42:07.069Z,23.66
2017-05-31T12:43:07.804Z,23.62
2017-05-31T12:44:08.570Z,23.58
2017-05-31T12:45:09.310Z,23.51
2017-05-31T12:46:10.294Z,23.43
2017-05-31T12:47:11.032Z,23.48
2017-05-31T12:48:11.768Z,23.44
2017-05-31T12:49:12.506Z,23.41
2017-05-31T12:50:13.242Z,23.39
2017-05-31T12:51:14.226Z,23.43
2017-05-31T12:52:14.988Z,23.40
2017-05-31T12:53:15.721Z,23.37
2017-05-31T12:54:16.458Z,23.31
2017-05-31T12:55:17.193Z,23.27
2017-05-31T12:56:18.181Z,23.13
2017-05-31T12:57:18.919Z,23.13
2017-05-31T12:58:19.654Z,23.06
2017-05-31T12:59:20.391Z,23.09
2017-05-31T13:00:21.132Z,23.12
2017-05-31T13:01:22.143Z,23.24
2017-05-31T13:02:22.878Z,23.17
2017-05-31T13:03:23.614Z,23.12